sensor_id;sensor_type;location;lat;lon;timestamp;temperature;humidity
18454;DHT22;9356;52.202;20.950;2023-07-08T00:00:56;22.10;60.20
18454;DHT22;9356;52.202;20.950;2023-07-08T00:02:08;22.10;60.20
18454;DHT22;9356;52.202;20.950;2023-07-08T00:03:15;22.10;60.20
18454;DHT22;9356;52.202;20.950;2023-07-08T00:04:23;22.10;60.30
18454;DHT22;9356;52.202;20.950;2023-07-08T00:05:29;22.10;60.50
18454;DHT22;9356;52.202;20.950;2023-07-08T00:06:39;22.10;60.40
18454;DHT22;9356;52.202;20.950;2023-07-08T00:07:42;22.10;60.60
18454;DHT22;9356;52.202;20.950;2023-07-08T00:08:49;22.00;60.50
18454;DHT22;9356;52.202;20.950;2023-07-08T00:09:55;22.10;60.60
18454;DHT22;9356;52.202;20.950;2023-07-08T00:11:00;22.10;60.60
18454;DHT22;9356;52.202;20.950;2023-07-08T00:12:10;22.00;60.70
18454;DHT22;9356;52.202;20.950;2023-07-08T00:13:15;22.00;60.70
18454;DHT22;9356;52.202;20.950;2023-07-08T00:14:21;22.10;60.80
18454;DHT22;9356;52.202;20.950;2023-07-08T00:15:31;22.00;60.80
18454;DHT22;9356;52.202;20.950;2023-07-08T00:16:43;22.00;60.80
18454;DHT22;9356;52.202;20.950;2023-07-08T00:17:52;22.00;60.80
18454;DHT22;9356;52.202;20.950;2023-07-08T00:19:01;22.00;61.30
18454;DHT22;9356;52.202;20.950;2023-07-08T00:20:18;22.00;61.10
18454;DHT22;9356;52.202;20.950;2023-07-08T00:21:24;22.00;61.00
18454;DHT22;9356;52.202;20.950;2023-07-08T00:22:32;22.00;61.20
18454;DHT22;9356;52.202;20.950;2023-07-08T00:23:37;22.00;61.00
18454;DHT22;9356;52.202;20.950;2023-07-08T00:24:43;22.00;61.00
18454;DHT22;9356;52.202;20.950;2023-07-08T00:25:49;22.00;60.90
18454;DHT22;9356;52.202;20.950;2023-07-08T00:26:57;22.00;60.80
18454;DHT22;9356;52.202;20.950;2023-07-08T00:27:59;22.00;60.50
18454;DHT22;9356;52.202;20.950;2023-07-08T00:29:09;21.90;60.50
18454;DHT22;9356;52.202;20.950;2023-07-08T00:30:25;21.90;60.30
18454;DHT22;9356;52.202;20.950;2023-07-08T00:31:33;22.10;60.40
18454;DHT22;9356;52.202;20.950;2023-07-08T00:32:36;21.80;60.30
18454;DHT22;9356;52.202;20.950;2023-07-08T00:33:52;21.80;60.10
18454;DHT22;9356;52.202;20.950;2023-07-08T00:35:08;21.80;60.10
18454;DHT22;9356;52.202;20.950;2023-07-08T00:36:20;21.80;60.20
18454;DHT22;9356;52.202;20.950;2023-07-08T00:37:25;21.80;60.30
18454;DHT22;9356;52.202;20.950;2023-07-08T00:38:32;21.80;60.30
18454;DHT22;9356;52.202;20.950;2023-07-08T00:39:37;21.80;60.40
18454;DHT22;9356;52.202;20.950;2023-07-08T00:40:57;22.00;60.60
18454;DHT22;9356;52.202;20.950;2023-07-08T00:42:13;21.80;60.50
18454;DHT22;9356;52.202;20.950;2023-07-08T00:43:29;21.80;60.70
18454;DHT22;9356;52.202;20.950;2023-07-08T00:44:41;21.80;60.70
18454;DHT22;9356;52.202;20.950;2023-07-08T00:45:53;21.80;60.80
18454;DHT22;9356;52.202;20.950;2023-07-08T00:47:10;21.80;60.80
18454;DHT22;9356;52.202;20.950;2023-07-08T00:48:28;21.80;61.00
18454;DHT22;9356;52.202;20.950;2023-07-08T00:49:39;21.90;61.00
18454;DHT22;9356;52.202;20.950;2023-07-08T00:50:53;21.70;60.80
18454;DHT22;9356;52.202;20.950;2023-07-08T00:52:20;24.40;63.00
18454;DHT22;9356;52.202;20.950;2023-07-08T00:53:30;21.60;61.20
18454;DHT22;9356;52.202;20.950;2023-07-08T00:54:33;21.70;61.30
18454;DHT22;9356;52.202;20.950;2023-07-08T00:55:45;21.70;61.30
18454;DHT22;9356;52.202;20.950;2023-07-08T00:56:57;21.70;61.50
18454;DHT22;9356;52.202;20.950;2023-07-08T00:58:05;21.70;62.10
18454;DHT22;9356;52.202;20.950;2023-07-08T00:59:13;21.70;61.60
18454;DHT22;9356;52.202;20.950;2023-07-08T01:00:25;21.70;61.90
18454;DHT22;9356;52.202;20.950;2023-07-08T01:01:37;21.70;61.60
18454;DHT22;9356;52.202;20.950;2023-07-08T01:02:49;21.70;61.70
18454;DHT22;9356;52.202;20.950;2023-07-08T01:04:06;21.70;61.70
18454;DHT22;9356;52.202;20.950;2023-07-08T01:05:17;21.70;61.70
18454;DHT22;9356;52.202;20.950;2023-07-08T01:06:35;21.70;61.60
18454;DHT22;9356;52.202;20.950;2023-07-08T01:07:50;21.60;61.60
18454;DHT22;9356;52.202;20.950;2023-07-08T01:09:03;21.70;61.70
18454;DHT22;9356;52.202;20.950;2023-07-08T01:10:17;21.60;61.70
18454;DHT22;9356;52.202;20.950;2023-07-08T01:11:29;21.60;62.10
18454;DHT22;9356;52.202;20.950;2023-07-08T01:12:38;21.60;62.00
18454;DHT22;9356;52.202;20.950;2023-07-08T01:13:49;21.60;61.90
18454;DHT22;9356;52.202;20.950;2023-07-08T01:15:00;21.60;62.10
18454;DHT22;9356;52.202;20.950;2023-07-08T01:16:05;21.60;62.10
18454;DHT22;9356;52.202;20.950;2023-07-08T01:17:13;21.60;62.10
18454;DHT22;9356;52.202;20.950;2023-07-08T01:18:19;21.60;62.20
18454;DHT22;9356;52.202;20.950;2023-07-08T01:19:25;21.50;62.30
18454;DHT22;9356;52.202;20.950;2023-07-08T01:20:37;21.60;62.30
18454;DHT22;9356;52.202;20.950;2023-07-08T01:22:01;21.50;62.30
18454;DHT22;9356;52.202;20.950;2023-07-08T01:23:05;21.50;62.50
18454;DHT22;9356;52.202;20.950;2023-07-08T01:24:17;21.50;62.40
18454;DHT22;9356;52.202;20.950;2023-07-08T01:25:27;22.10;62.80
18454;DHT22;9356;52.202;20.950;2023-07-08T01:26:36;21.50;62.50
18454;DHT22;9356;52.202;20.950;2023-07-08T01:27:48;21.40;62.40
18454;DHT22;9356;52.202;20.950;2023-07-08T01:28:59;21.50;62.60
18454;DHT22;9356;52.202;20.950;2023-07-08T01:30:05;21.50;62.50
18454;DHT22;9356;52.202;20.950;2023-07-08T01:31:15;21.50;62.50
18454;DHT22;9356;52.202;20.950;2023-07-08T01:32:20;21.40;62.70
18454;DHT22;9356;52.202;20.950;2023-07-08T01:33:29;21.40;62.70
18454;DHT22;9356;52.202;20.950;2023-07-08T01:34:37;21.40;62.60
18454;DHT22;9356;52.202;20.950;2023-07-08T01:35:49;21.40;62.60
18454;DHT22;9356;52.202;20.950;2023-07-08T01:37:05;21.40;62.80
18454;DHT22;9356;52.202;20.950;2023-07-08T01:38:21;21.30;62.70
18454;DHT22;9356;52.202;20.950;2023-07-08T01:39:28;21.40;62.80
18454;DHT22;9356;52.202;20.950;2023-07-08T01:40:46;21.40;62.70
18454;DHT22;9356;52.202;20.950;2023-07-08T01:41:52;21.30;62.90
18454;DHT22;9356;52.202;20.950;2023-07-08T01:43:03;21.30;62.90
18454;DHT22;9356;52.202;20.950;2023-07-08T01:44:29;21.30;62.80
18454;DHT22;9356;52.202;20.950;2023-07-08T01:45:37;21.30;63.00
18454;DHT22;9356;52.202;20.950;2023-07-08T01:46:41;21.30;62.80
18454;DHT22;9356;52.202;20.950;2023-07-08T01:47:51;21.30;62.80
18454;DHT22;9356;52.202;20.950;2023-07-08T01:49:04;21.30;62.90
18454;DHT22;9356;52.202;20.950;2023-07-08T01:50:13;21.30;63.10
18454;DHT22;9356;52.202;20.950;2023-07-08T01:51:17;21.30;63.00
18454;DHT22;9356;52.202;20.950;2023-07-08T01:52:25;21.30;62.90
18454;DHT22;9356;52.202;20.950;2023-07-08T01:53:33;21.30;63.20
18454;DHT22;9356;52.202;20.950;2023-07-08T01:54:48;21.30;63.10
18454;DHT22;9356;52.202;20.950;2023-07-08T01:56:01;21.30;63.20
18454;DHT22;9356;52.202;20.950;2023-07-08T01:57:08;18.50;61.40
18454;DHT22;9356;52.202;20.950;2023-07-08T01:58:17;21.30;63.30
18454;DHT22;9356;52.202;20.950;2023-07-08T01:59:29;21.30;63.20
18454;DHT22;9356;52.202;20.950;2023-07-08T02:00:37;21.30;63.40
18454;DHT22;9356;52.202;20.950;2023-07-08T02:01:49;21.30;63.20
18454;DHT22;9356;52.202;20.950;2023-07-08T02:03:01;21.30;63.40
18454;DHT22;9356;52.202;20.950;2023-07-08T02:04:09;21.20;63.40
18454;DHT22;9356;52.202;20.950;2023-07-08T02:05:19;21.30;63.40
18454;DHT22;9356;52.202;20.950;2023-07-08T02:06:27;21.20;63.40
18454;DHT22;9356;52.202;20.950;2023-07-08T02:07:45;21.20;63.50
18454;DHT22;9356;52.202;20.950;2023-07-08T02:08:59;21.20;63.40
18454;DHT22;9356;52.202;20.950;2023-07-08T02:10:05;21.20;63.40
18454;DHT22;9356;52.202;20.950;2023-07-08T02:11:13;21.20;63.40
18454;DHT22;9356;52.202;20.950;2023-07-08T02:12:19;21.20;64.10
18454;DHT22;9356;52.202;20.950;2023-07-08T02:13:26;21.20;63.40
18454;DHT22;9356;52.202;20.950;2023-07-08T02:14:32;21.20;63.40
18454;DHT22;9356;52.202;20.950;2023-07-08T02:15:42;20.40;63.00
18454;DHT22;9356;52.202;20.950;2023-07-08T02:16:51;21.20;63.50
18454;DHT22;9356;52.202;20.950;2023-07-08T02:18:01;21.20;63.60
18454;DHT22;9356;52.202;20.950;2023-07-08T02:19:13;21.20;63.60
18454;DHT22;9356;52.202;20.950;2023-07-08T02:20:25;21.20;63.50
18454;DHT22;9356;52.202;20.950;2023-07-08T02:21:29;21.10;63.40
18454;DHT22;9356;52.202;20.950;2023-07-08T02:22:36;21.20;63.50
18454;DHT22;9356;52.202;20.950;2023-07-08T02:23:46;21.20;63.60
18454;DHT22;9356;52.202;20.950;2023-07-08T02:24:53;21.20;63.50
18454;DHT22;9356;52.202;20.950;2023-07-08T02:26:01;21.20;63.70
18454;DHT22;9356;52.202;20.950;2023-07-08T02:27:09;21.20;63.60
18454;DHT22;9356;52.202;20.950;2023-07-08T02:28:12;21.10;63.50
18454;DHT22;9356;52.202;20.950;2023-07-08T02:29:17;21.20;63.70
18454;DHT22;9356;52.202;20.950;2023-07-08T02:30:20;21.10;63.70
18454;DHT22;9356;52.202;20.950;2023-07-08T02:31:25;21.10;63.70
18454;DHT22;9356;52.202;20.950;2023-07-08T02:32:30;21.10;63.70
18454;DHT22;9356;52.202;20.950;2023-07-08T02:33:41;21.10;63.80
18454;DHT22;9356;52.202;20.950;2023-07-08T02:34:47;21.10;63.90
18454;DHT22;9356;52.202;20.950;2023-07-08T02:35:52;21.10;63.80
18454;DHT22;9356;52.202;20.950;2023-07-08T02:36:57;21.10;63.80
18454;DHT22;9356;52.202;20.950;2023-07-08T02:38:05;21.10;63.90
18454;DHT22;9356;52.202;20.950;2023-07-08T02:39:14;21.10;64.00
18454;DHT22;9356;52.202;20.950;2023-07-08T02:40:25;21.10;64.00
18454;DHT22;9356;52.202;20.950;2023-07-08T02:41:37;21.10;63.90
18454;DHT22;9356;52.202;20.950;2023-07-08T02:42:48;21.10;63.90
18454;DHT22;9356;52.202;20.950;2023-07-08T02:43:56;21.20;64.00
18454;DHT22;9356;52.202;20.950;2023-07-08T02:45:09;21.10;64.10
18454;DHT22;9356;52.202;20.950;2023-07-08T02:46:13;20.80;63.80
18454;DHT22;9356;52.202;20.950;2023-07-08T02:47:25;18.10;62.00
18454;DHT22;9356;52.202;20.950;2023-07-08T02:48:31;21.10;64.00
18454;DHT22;9356;52.202;20.950;2023-07-08T02:49:37;21.10;63.80
18454;DHT22;9356;52.202;20.950;2023-07-08T02:50:40;21.10;63.10
18454;DHT22;9356;52.202;20.950;2023-07-08T02:51:49;21.10;63.70
18454;DHT22;9356;52.202;20.950;2023-07-08T02:52:57;21.10;63.80
18454;DHT22;9356;52.202;20.950;2023-07-08T02:54:04;21.10;63.90
18454;DHT22;9356;52.202;20.950;2023-07-08T02:55:11;21.10;63.80
18454;DHT22;9356;52.202;20.950;2023-07-08T02:56:17;21.10;63.90
18454;DHT22;9356;52.202;20.950;2023-07-08T02:57:21;21.10;63.70
18454;DHT22;9356;52.202;20.950;2023-07-08T02:58:29;21.20;63.70
18454;DHT22;9356;52.202;20.950;2023-07-08T02:59:32;21.20;63.70
18454;DHT22;9356;52.202;20.950;2023-07-08T03:00:37;21.20;63.60
18454;DHT22;9356;52.202;20.950;2023-07-08T03:01:40;21.40;63.40
18454;DHT22;9356;52.202;20.950;2023-07-08T03:02:48;21.60;63.30
18454;DHT22;9356;52.202;20.950;2023-07-08T03:03:56;21.70;62.80
18454;DHT22;9356;52.202;20.950;2023-07-08T03:05:09;21.90;62.30
18454;DHT22;9356;52.202;20.950;2023-07-08T03:06:15;22.30;61.30
18454;DHT22;9356;52.202;20.950;2023-07-08T03:07:19;22.40;60.70
18454;DHT22;9356;52.202;20.950;2023-07-08T03:08:27;20.60;59.10
18454;DHT22;9356;52.202;20.950;2023-07-08T03:09:30;22.90;59.70
18454;DHT22;9356;52.202;20.950;2023-07-08T03:10:40;23.10;59.10
18454;DHT22;9356;52.202;20.950;2023-07-08T03:12:12;23.40;58.30
18454;DHT22;9356;52.202;20.950;2023-07-08T03:13:20;23.80;57.40
18454;DHT22;9356;52.202;20.950;2023-07-08T03:14:29;23.90;57.10
18454;DHT22;9356;52.202;20.950;2023-07-08T03:15:35;24.10;56.50
18454;DHT22;9356;52.202;20.950;2023-07-08T03:16:41;24.30;56.20
18454;DHT22;9356;52.202;20.950;2023-07-08T03:17:49;24.30;55.60
18454;DHT22;9356;52.202;20.950;2023-07-08T03:19:04;24.50;55.30
18454;DHT22;9356;52.202;20.950;2023-07-08T03:20:13;24.50;54.90
18454;DHT22;9356;52.202;20.950;2023-07-08T03:21:21;24.50;55.10
18454;DHT22;9356;52.202;20.950;2023-07-08T03:22:29;24.60;55.20
18454;DHT22;9356;52.202;20.950;2023-07-08T03:23:37;24.50;55.30
18454;DHT22;9356;52.202;20.950;2023-07-08T03:24:48;24.50;55.30
18454;DHT22;9356;52.202;20.950;2023-07-08T03:25:57;24.50;55.80
18454;DHT22;9356;52.202;20.950;2023-07-08T03:27:04;24.50;55.80
18454;DHT22;9356;52.202;20.950;2023-07-08T03:28:12;24.50;56.00
18454;DHT22;9356;52.202;20.950;2023-07-08T03:29:19;24.40;56.20
18454;DHT22;9356;52.202;20.950;2023-07-08T03:30:26;24.40;55.70
18454;DHT22;9356;52.202;20.950;2023-07-08T03:31:33;23.60;56.00
18454;DHT22;9356;52.202;20.950;2023-07-08T03:32:40;24.40;55.70
18454;DHT22;9356;52.202;20.950;2023-07-08T03:33:52;24.40;55.70
18454;DHT22;9356;52.202;20.950;2023-07-08T03:34:59;24.40;55.40
18454;DHT22;9356;52.202;20.950;2023-07-08T03:36:13;24.40;55.40
18454;DHT22;9356;52.202;20.950;2023-07-08T03:37:25;24.30;55.50
18454;DHT22;9356;52.202;20.950;2023-07-08T03:38:31;24.30;55.60
18454;DHT22;9356;52.202;20.950;2023-07-08T03:39:37;24.30;55.40
18454;DHT22;9356;52.202;20.950;2023-07-08T03:40:41;24.30;55.80
18454;DHT22;9356;52.202;20.950;2023-07-08T03:41:57;24.30;56.00
18454;DHT22;9356;52.202;20.950;2023-07-08T03:43:05;24.30;55.80
18454;DHT22;9356;52.202;20.950;2023-07-08T03:44:16;24.30;55.90
18454;DHT22;9356;52.202;20.950;2023-07-08T03:45:25;24.40;55.30
18454;DHT22;9356;52.202;20.950;2023-07-08T03:46:34;24.40;55.00
18454;DHT22;9356;52.202;20.950;2023-07-08T03:47:45;24.40;55.20
18454;DHT22;9356;52.202;20.950;2023-07-08T03:48:51;24.40;55.10
18454;DHT22;9356;52.202;20.950;2023-07-08T03:49:57;24.40;55.10
18454;DHT22;9356;52.202;20.950;2023-07-08T03:51:32;24.40;55.20
18454;DHT22;9356;52.202;20.950;2023-07-08T03:52:38;23.60;54.60
18454;DHT22;9356;52.202;20.950;2023-07-08T03:53:48;24.30;55.10
18454;DHT22;9356;52.202;20.950;2023-07-08T03:54:53;24.40;55.20
18454;DHT22;9356;52.202;20.950;2023-07-08T03:56:03;24.30;55.10
18454;DHT22;9356;52.202;20.950;2023-07-08T03:57:07;24.30;55.00
18454;DHT22;9356;52.202;20.950;2023-07-08T03:58:13;24.30;55.00
18454;DHT22;9356;52.202;20.950;2023-07-08T03:59:17;24.30;55.10
18454;DHT22;9356;52.202;20.950;2023-07-08T04:00:29;24.30;55.20
18454;DHT22;9356;52.202;20.950;2023-07-08T04:01:35;24.40;55.30
18454;DHT22;9356;52.202;20.950;2023-07-08T04:02:53;24.40;55.30
18454;DHT22;9356;52.202;20.950;2023-07-08T04:04:01;24.50;55.30
18454;DHT22;9356;52.202;20.950;2023-07-08T04:05:13;24.60;55.20
18454;DHT22;9356;52.202;20.950;2023-07-08T04:06:25;24.70;55.30
18454;DHT22;9356;52.202;20.950;2023-07-08T04:07:34;24.80;55.10
18454;DHT22;9356;52.202;20.950;2023-07-08T04:08:40;24.90;54.90
18454;DHT22;9356;52.202;20.950;2023-07-08T04:09:52;24.90;54.40
18454;DHT22;9356;52.202;20.950;2023-07-08T04:11:01;25.00;54.40
18454;DHT22;9356;52.202;20.950;2023-07-08T04:12:14;25.00;54.30
18454;DHT22;9356;52.202;20.950;2023-07-08T04:13:22;25.10;54.20
18454;DHT22;9356;52.202;20.950;2023-07-08T04:14:28;25.10;54.20
18454;DHT22;9356;52.202;20.950;2023-07-08T04:15:32;25.10;54.70
18454;DHT22;9356;52.202;20.950;2023-07-08T04:16:49;25.20;54.70
18454;DHT22;9356;52.202;20.950;2023-07-08T04:17:57;25.20;54.50
18454;DHT22;9356;52.202;20.950;2023-07-08T04:19:04;25.30;54.20
18454;DHT22;9356;52.202;20.950;2023-07-08T04:20:13;25.40;53.80
18454;DHT22;9356;52.202;20.950;2023-07-08T04:21:24;25.50;53.60
18454;DHT22;9356;52.202;20.950;2023-07-08T04:22:30;25.50;53.50
18454;DHT22;9356;52.202;20.950;2023-07-08T04:23:37;25.60;53.60
18454;DHT22;9356;52.202;20.950;2023-07-08T04:24:47;25.60;53.70
18454;DHT22;9356;52.202;20.950;2023-07-08T04:25:56;25.60;54.10
18454;DHT22;9356;52.202;20.950;2023-07-08T04:27:01;25.80;54.40
18454;DHT22;9356;52.202;20.950;2023-07-08T04:28:13;25.80;54.60
18454;DHT22;9356;52.202;20.950;2023-07-08T04:29:23;26.00;54.70
18454;DHT22;9356;52.202;20.950;2023-07-08T04:30:29;26.00;54.50
18454;DHT22;9356;52.202;20.950;2023-07-08T04:31:37;26.10;54.20
18454;DHT22;9356;52.202;20.950;2023-07-08T04:32:49;26.20;54.10
18454;DHT22;9356;52.202;20.950;2023-07-08T04:34:04;26.30;54.00
18454;DHT22;9356;52.202;20.950;2023-07-08T04:35:14;26.40;53.50
18454;DHT22;9356;52.202;20.950;2023-07-08T04:36:21;26.50;53.60
18454;DHT22;9356;52.202;20.950;2023-07-08T04:37:34;26.60;53.30
18454;DHT22;9356;52.202;20.950;2023-07-08T04:38:37;26.70;53.10
18454;DHT22;9356;52.202;20.950;2023-07-08T04:39:47;26.80;52.90
18454;DHT22;9356;52.202;20.950;2023-07-08T04:40:51;26.80;52.60
18454;DHT22;9356;52.202;20.950;2023-07-08T04:41:57;26.90;52.30
18454;DHT22;9356;52.202;20.950;2023-07-08T04:43:05;27.00;52.10
18454;DHT22;9356;52.202;20.950;2023-07-08T04:44:15;27.20;51.80
18454;DHT22;9356;52.202;20.950;2023-07-08T04:45:21;26.30;50.90
18454;DHT22;9356;52.202;20.950;2023-07-08T04:46:37;27.10;51.20
18454;DHT22;9356;52.202;20.950;2023-07-08T04:47:49;27.10;51.30
18454;DHT22;9356;52.202;20.950;2023-07-08T04:48:56;27.10;51.30
18454;DHT22;9356;52.202;20.950;2023-07-08T04:50:00;27.10;51.60
18454;DHT22;9356;52.202;20.950;2023-07-08T04:51:09;27.20;51.40
18454;DHT22;9356;52.202;20.950;2023-07-08T04:52:13;27.30;51.20
18454;DHT22;9356;52.202;20.950;2023-07-08T04:53:22;27.40;51.10
18454;DHT22;9356;52.202;20.950;2023-07-08T04:54:29;27.50;51.00
18454;DHT22;9356;52.202;20.950;2023-07-08T04:55:40;28.70;51.80
18454;DHT22;9356;52.202;20.950;2023-07-08T04:56:49;27.60;50.40
18454;DHT22;9356;52.202;20.950;2023-07-08T04:57:57;27.60;50.70
18454;DHT22;9356;52.202;20.950;2023-07-08T04:59:03;27.80;50.30
18454;DHT22;9356;52.202;20.950;2023-07-08T05:00:16;27.80;50.10
18454;DHT22;9356;52.202;20.950;2023-07-08T05:01:21;28.00;50.10
18454;DHT22;9356;52.202;20.950;2023-07-08T05:02:29;28.00;50.10
18454;DHT22;9356;52.202;20.950;2023-07-08T05:03:37;28.00;50.00
18454;DHT22;9356;52.202;20.950;2023-07-08T05:04:45;28.10;49.80
18454;DHT22;9356;52.202;20.950;2023-07-08T05:05:52;28.20;49.60
18454;DHT22;9356;52.202;20.950;2023-07-08T05:06:57;28.20;49.20
18454;DHT22;9356;52.202;20.950;2023-07-08T05:08:05;28.20;49.10
18454;DHT22;9356;52.202;20.950;2023-07-08T05:09:13;28.20;49.20
18454;DHT22;9356;52.202;20.950;2023-07-08T05:10:24;28.30;49.60
18454;DHT22;9356;52.202;20.950;2023-07-08T05:11:33;28.30;49.40
18454;DHT22;9356;52.202;20.950;2023-07-08T05:12:45;28.40;49.10
18454;DHT22;9356;52.202;20.950;2023-07-08T05:13:53;28.40;49.10
18454;DHT22;9356;52.202;20.950;2023-07-08T05:15:01;28.50;49.00
18454;DHT22;9356;52.202;20.950;2023-07-08T05:16:13;28.60;49.10
18454;DHT22;9356;52.202;20.950;2023-07-08T05:17:16;28.00;48.40
18454;DHT22;9356;52.202;20.950;2023-07-08T05:18:23;28.60;49.00
18454;DHT22;9356;52.202;20.950;2023-07-08T05:19:29;28.60;48.60
18454;DHT22;9356;52.202;20.950;2023-07-08T05:20:38;28.60;48.90
18454;DHT22;9356;52.202;20.950;2023-07-08T05:21:51;28.60;48.30
18454;DHT22;9356;52.202;20.950;2023-07-08T05:23:02;28.60;48.50
18454;DHT22;9356;52.202;20.950;2023-07-08T05:24:09;28.70;48.50
18454;DHT22;9356;52.202;20.950;2023-07-08T05:25:19;28.60;48.20
18454;DHT22;9356;52.202;20.950;2023-07-08T05:26:22;28.60;48.00
18454;DHT22;9356;52.202;20.950;2023-07-08T05:27:28;28.60;48.00
18454;DHT22;9356;52.202;20.950;2023-07-08T05:28:34;28.50;47.90
18454;DHT22;9356;52.202;20.950;2023-07-08T05:29:42;28.50;48.30
18454;DHT22;9356;52.202;20.950;2023-07-08T05:30:52;28.50;48.20
18454;DHT22;9356;52.202;20.950;2023-07-08T05:32:01;28.50;48.40
18454;DHT22;9356;52.202;20.950;2023-07-08T05:33:09;28.60;48.40
18454;DHT22;9356;52.202;20.950;2023-07-08T05:34:16;28.60;48.10
18454;DHT22;9356;52.202;20.950;2023-07-08T05:35:24;28.60;47.70
18454;DHT22;9356;52.202;20.950;2023-07-08T05:36:33;28.60;47.70
18454;DHT22;9356;52.202;20.950;2023-07-08T05:37:41;28.70;48.10
18454;DHT22;9356;52.202;20.950;2023-07-08T05:38:53;28.60;47.90
18454;DHT22;9356;52.202;20.950;2023-07-08T05:40:01;28.60;47.80
18454;DHT22;9356;52.202;20.950;2023-07-08T05:41:08;28.70;47.50
18454;DHT22;9356;52.202;20.950;2023-07-08T05:42:12;28.70;47.70
18454;DHT22;9356;52.202;20.950;2023-07-08T05:43:16;28.70;47.50
18454;DHT22;9356;52.202;20.950;2023-07-08T05:44:21;28.80;48.10
18454;DHT22;9356;52.202;20.950;2023-07-08T05:45:29;28.80;47.20
18454;DHT22;9356;52.202;20.950;2023-07-08T05:46:39;28.80;47.20
18454;DHT22;9356;52.202;20.950;2023-07-08T05:47:43;28.70;47.50
18454;DHT22;9356;52.202;20.950;2023-07-08T05:48:52;28.80;47.40
18454;DHT22;9356;52.202;20.950;2023-07-08T05:50:03;28.80;48.00
18454;DHT22;9356;52.202;20.950;2023-07-08T05:51:08;28.90;47.30
18454;DHT22;9356;52.202;20.950;2023-07-08T05:52:15;28.90;47.40
18454;DHT22;9356;52.202;20.950;2023-07-08T05:53:21;29.00;47.20
18454;DHT22;9356;52.202;20.950;2023-07-08T05:54:29;29.10;47.70
18454;DHT22;9356;52.202;20.950;2023-07-08T05:55:33;29.20;47.30
18454;DHT22;9356;52.202;20.950;2023-07-08T05:56:41;29.30;46.40
18454;DHT22;9356;52.202;20.950;2023-07-08T05:57:49;29.30;45.90
18454;DHT22;9356;52.202;20.950;2023-07-08T05:58:56;29.40;46.10
18454;DHT22;9356;52.202;20.950;2023-07-08T06:00:01;29.50;45.90
18454;DHT22;9356;52.202;20.950;2023-07-08T06:01:20;29.50;46.30
18454;DHT22;9356;52.202;20.950;2023-07-08T06:02:25;29.60;46.70
18454;DHT22;9356;52.202;20.950;2023-07-08T06:03:33;29.70;46.20
18454;DHT22;9356;52.202;20.950;2023-07-08T06:04:41;29.80;46.60
18454;DHT22;9356;52.202;20.950;2023-07-08T06:05:51;29.70;46.90
18454;DHT22;9356;52.202;20.950;2023-07-08T06:06:57;29.90;46.50
18454;DHT22;9356;52.202;20.950;2023-07-08T06:08:07;29.90;46.30
18454;DHT22;9356;52.202;20.950;2023-07-08T06:09:09;30.00;46.20
18454;DHT22;9356;52.202;20.950;2023-07-08T06:10:21;30.00;46.50
18454;DHT22;9356;52.202;20.950;2023-07-08T06:11:25;31.30;47.20
18454;DHT22;9356;52.202;20.950;2023-07-08T06:12:37;30.20;46.40
18454;DHT22;9356;52.202;20.950;2023-07-08T06:13:42;30.20;46.40
18454;DHT22;9356;52.202;20.950;2023-07-08T06:14:49;30.30;46.00
18454;DHT22;9356;52.202;20.950;2023-07-08T06:15:57;30.40;46.80
18454;DHT22;9356;52.202;20.950;2023-07-08T06:17:03;30.30;47.10
18454;DHT22;9356;52.202;20.950;2023-07-08T06:18:08;30.40;47.50
18454;DHT22;9356;52.202;20.950;2023-07-08T06:19:17;30.50;45.90
18454;DHT22;9356;52.202;20.950;2023-07-08T06:20:23;30.40;46.20
18454;DHT22;9356;52.202;20.950;2023-07-08T06:21:29;30.50;45.40
18454;DHT22;9356;52.202;20.950;2023-07-08T06:22:33;30.40;45.70
18454;DHT22;9356;52.202;20.950;2023-07-08T06:23:48;30.50;47.00
18454;DHT22;9356;52.202;20.950;2023-07-08T06:24:52;30.60;47.10
18454;DHT22;9356;52.202;20.950;2023-07-08T06:26:01;30.60;46.40
18454;DHT22;9356;52.202;20.950;2023-07-08T06:27:09;30.80;47.10
18454;DHT22;9356;52.202;20.950;2023-07-08T06:28:17;30.90;45.90
18454;DHT22;9356;52.202;20.950;2023-07-08T06:29:24;31.00;46.70
18454;DHT22;9356;52.202;20.950;2023-07-08T06:30:29;31.00;45.70
18454;DHT22;9356;52.202;20.950;2023-07-08T06:31:37;31.00;45.80
18454;DHT22;9356;52.202;20.950;2023-07-08T06:32:45;31.10;46.70
18454;DHT22;9356;52.202;20.950;2023-07-08T06:33:53;31.10;46.40
18454;DHT22;9356;52.202;20.950;2023-07-08T06:35:08;31.10;46.10
18454;DHT22;9356;52.202;20.950;2023-07-08T06:36:17;31.20;45.50
18454;DHT22;9356;52.202;20.950;2023-07-08T06:37:24;31.20;45.70
18454;DHT22;9356;52.202;20.950;2023-07-08T06:38:28;31.20;44.30
18454;DHT22;9356;52.202;20.950;2023-07-08T06:39:33;31.20;44.60
18454;DHT22;9356;52.202;20.950;2023-07-08T06:40:40;31.20;44.60
18454;DHT22;9356;52.202;20.950;2023-07-08T06:41:45;31.30;45.60
18454;DHT22;9356;52.202;20.950;2023-07-08T06:42:59;31.30;44.30
18454;DHT22;9356;52.202;20.950;2023-07-08T06:44:16;31.30;45.50
18454;DHT22;9356;52.202;20.950;2023-07-08T06:45:21;31.40;46.50
18454;DHT22;9356;52.202;20.950;2023-07-08T06:46:29;31.40;45.00
18454;DHT22;9356;52.202;20.950;2023-07-08T06:47:39;31.40;44.40
18454;DHT22;9356;52.202;20.950;2023-07-08T06:48:49;31.40;46.20
18454;DHT22;9356;52.202;20.950;2023-07-08T06:49:56;31.60;45.80
18454;DHT22;9356;52.202;20.950;2023-07-08T06:51:03;31.50;45.80
18454;DHT22;9356;52.202;20.950;2023-07-08T06:52:16;31.50;44.60
18454;DHT22;9356;52.202;20.950;2023-07-08T06:53:25;31.60;43.80
18454;DHT22;9356;52.202;20.950;2023-07-08T06:54:36;31.50;43.40
18454;DHT22;9356;52.202;20.950;2023-07-08T06:55:44;31.50;44.80
18454;DHT22;9356;52.202;20.950;2023-07-08T06:56:51;31.50;45.10
18454;DHT22;9356;52.202;20.950;2023-07-08T06:57:56;31.50;45.30
18454;DHT22;9356;52.202;20.950;2023-07-08T06:59:01;31.60;44.10
18454;DHT22;9356;52.202;20.950;2023-07-08T07:00:11;31.60;43.90
18454;DHT22;9356;52.202;20.950;2023-07-08T07:01:17;31.60;43.80
18454;DHT22;9356;52.202;20.950;2023-07-08T07:02:25;31.60;44.10
18454;DHT22;9356;52.202;20.950;2023-07-08T07:03:36;31.70;45.30
18454;DHT22;9356;52.202;20.950;2023-07-08T07:04:45;31.70;42.80
18454;DHT22;9356;52.202;20.950;2023-07-08T07:05:53;31.60;44.70
18454;DHT22;9356;52.202;20.950;2023-07-08T07:07:09;31.50;44.70
18454;DHT22;9356;52.202;20.950;2023-07-08T07:08:17;31.50;44.70
18454;DHT22;9356;52.202;20.950;2023-07-08T07:09:26;31.30;42.50
18454;DHT22;9356;52.202;20.950;2023-07-08T07:10:33;31.00;42.50
18454;DHT22;9356;52.202;20.950;2023-07-08T07:11:41;30.90;43.80
18454;DHT22;9356;52.202;20.950;2023-07-08T07:12:49;30.90;43.50
18454;DHT22;9356;52.202;20.950;2023-07-08T07:13:57;30.90;43.40
18454;DHT22;9356;52.202;20.950;2023-07-08T07:15:01;31.00;41.90